Time;durP1;ratioP1;P1;durP2;ratioP2;P2;SDS_P1;SDS_P2;PMS_P1;PMS_P2;Temp;Humidity;BMP_temperature;BMP_pressure;BME280_temperature;BME280_humidity;BME280_pressure;Samples;Min_cycle;Max_cycle;Signal;HPM_P1;HPM_P2
2023/11/07 07:13:31;;;;;;;3.57;2.80;;;;;;;;;;4918290;29;20232;-90
2023/11/07 07:16:37;;;;;;;2.37;1.07;;;;;;;;;;4905007;29;20216;-91
2023/11/07 07:19:42;;;;;;;3.20;1.07;;;;;;;;;;4904874;29;20217;-91
2023/11/07 07:22:47;;;;;;;3.83;3.43;;;;;;;;;;4905246;29;20190;-90
2023/11/07 07:26:47;;;;;;;1.97;1.33;;;;;;;;;;4884322;29;20225;-89
2023/11/07 07:30:09;;;;;;;1.03;0.70;;;;;;;;;;4904783;29;20193;-89
2023/11/07 07:33:19;;;;;;;2.10;0.70;;;;;;;;;;4895816;29;20186;-90
2023/11/07 08:38:09;;;;;;;2.30;1.03;;;;;;;;;;4939246;29;20228;-88
2023/11/07 08:41:13;;;;;;;1.50;1.00;;;;;;;;;;4928971;29;20193;-89
2023/11/07 08:44:19;;;;;;;1.93;1.17;;;;;;;;;;4928926;29;20189;-88
2023/11/07 08:47:28;;;;;;;1.40;0.97;;;;;;;;;;4921697;29;20220;-90
2023/11/07 08:50:37;;;;;;;2.13;1.07;;;;;;;;;;4909548;29;20189;-90
2023/11/07 08:53:42;;;;;;;1.60;0.90;;;;;;;;;;4910422;29;20185;-90
2023/11/07 08:56:49;;;;;;;2.97;1.10;;;;;;;;;;4920149;29;20225;-90
2023/11/07 08:59:53;;;;;;;0.80;0.80;;;;;;;;;;4909414;29;20220;-90
2023/11/07 09:02:57;;;;;;;1.43;0.80;;;;;;;;;;4908834;29;20189;-90
2023/11/07 09:06:05;;;;;;;1.27;0.73;;;;;;;;;;4887427;29;20567;-89
2023/11/07 09:09:14;;;;;;;17.93;9.97;;;;;;;;;;4919727;29;20189;-90
2023/11/07 09:12:19;;;;;;;5.87;3.67;;;;;;;;;;4908726;29;20185;-90
2023/11/07 09:15:25;;;;;;;1.00;0.80;;;;;;;;;;4908888;29;20532;-91
2023/11/07 09:18:33;;;;;;;1.27;1.00;;;;;;;;;;4908841;29;20185;-90
2023/11/07 09:21:38;;;;;;;0.93;0.83;;;;;;;;;;4908918;29;20189;-90
2023/11/07 09:24:43;;;;;;;1.03;0.83;;;;;;;;;;4898079;29;20631;-90
2023/11/07 09:27:49;;;;;;;0.80;0.60;;;;;;;;;;4908602;29;20181;-89
2023/11/07 09:30:53;;;;;;;1.67;0.60;;;;;;;;;;4919813;29;20184;-90
2023/11/07 09:33:57;;;;;;;1.30;0.80;;;;;;;;;;4919561;29;20634;-90
2023/11/07 09:37:01;;;;;;;4.50;0.63;;;;;;;;;;4907830;29;20236;-90
2023/11/07 09:40:17;;;;;;;0.90;0.70;;;;;;;;;;4908560;29;20217;-90
2023/11/07 09:43:22;;;;;;;1.73;0.70;;;;;;;;;;4908270;29;20185;-90
2023/11/07 09:46:27;;;;;;;1.20;0.70;;;;;;;;;;4908295;29;20229;-89
2023/11/07 09:49:32;;;;;;;0.90;0.63;;;;;;;;;;4907840;29;20193;-90
2023/11/07 09:52:38;;;;;;;0.80;0.60;;;;;;;;;;4907898;29;20193;-90
2023/11/07 09:55:43;;;;;;;2.73;0.70;;;;;;;;;;4908245;29;20232;-90
2023/11/07 09:58:50;;;;;;;1.30;0.70;;;;;;;;;;4908183;29;20188;-90
2023/11/07 10:01:55;;;;;;;1.17;0.93;;;;;;;;;;4907579;29;20189;-90
2023/11/07 10:04:59;;;;;;;2.33;1.27;;;;;;;;;;4907851;29;20185;-90
2023/11/07 10:08:03;;;;;;;4.10;1.40;;;;;;;;;;4919131;29;20639;-90
2023/11/07 10:11:14;;;;;;;2.23;0.70;;;;;;;;;;4907599;29;20188;-89
2023/11/07 10:14:18;;;;;;;2.10;0.50;;;;;;;;;;4907156;29;20189;-90
2023/11/07 10:17:23;;;;;;;1.73;0.57;;;;;;;;;;4907273;29;20228;-89
2023/11/07 10:20:28;;;;;;;1.93;0.80;;;;;;;;;;4918229;29;20225;-89
2023/11/07 10:23:32;;;;;;;4.43;0.60;;;;;;;;;;4907440;29;20193;-89
2023/11/07 10:26:50;;;;;;;1.20;0.40;;;;;;;;;;4907710;29;20224;-89
2023/11/07 10:29:54;;;;;;;0.90;0.80;;;;;;;;;;4896530;29;20190;-90
2023/11/07 10:32:59;;;;;;;1.83;1.00;;;;;;;;;;4918705;29;20197;-90
2023/11/07 10:36:03;;;;;;;0.93;0.50;;;;;;;;;;4917942;29;20586;-90
2023/11/07 10:39:16;;;;;;;1.37;0.50;;;;;;;;;;4907136;29;20527;-89
2023/11/07 10:42:20;;;;;;;0.90;0.50;;;;;;;;;;4918358;29;20190;-90
2023/11/07 10:45:24;;;;;;;0.90;0.60;;;;;;;;;;4907198;29;20189;-89
2023/11/07 10:48:30;;;;;;;1.30;0.90;;;;;;;;;;4910337;29;20189;-89
2023/11/07 10:51:35;;;;;;;1.33;0.70;;;;;;;;;;4910792;29;20193;-89
2023/11/07 10:54:39;;;;;;;1.37;0.97;;;;;;;;;;4911068;29;20189;-89
2023/11/07 10:57:52;;;;;;;4.03;1.33;;;;;;;;;;4911093;29;20189;-89
2023/11/07 11:00:57;;;;;;;5.00;3.70;;;;;;;;;;4921465;29;20213;-89
2023/11/07 11:04:03;;;;;;;4.00;2.30;;;;;;;;;;4911409;29;20188;-89
2023/11/07 11:07:10;;;;;;;2.93;1.60;;;;;;;;;;4910874;29;20224;-89
2023/11/07 11:10:20;;;;;;;12.20;6.83;;;;;;;;;;4911036;29;20185;-89
2023/11/07 11:13:28;;;;;;;5.17;2.93;;;;;;;;;;4911120;29;20198;-88
2023/11/07 11:16:33;;;;;;;3.00;1.50;;;;;;;;;;4921936;29;20228;-87
2023/11/07 11:19:43;;;;;;;9.83;6.33;;;;;;;;;;4921139;29;20193;-88
2023/11/07 11:22:55;;;;;;;4.37;3.57;;;;;;;;;;4921266;29;20539;-88
2023/11/07 11:26:20;;;;;;;3.17;1.90;;;;;;;;;;4922437;29;20698;-88
2023/11/07 11:29:27;;;;;;;1.20;0.70;;;;;;;;;;4921593;29;20181;-87
2023/11/07 11:32:32;;;;;;;3.50;0.90;;;;;;;;;;4910242;29;20189;-87
2023/11/07 11:35:40;;;;;;;0.83;0.50;;;;;;;;;;4920958;29;20228;-87
2023/11/07 11:38:45;;;;;;;0.70;0.47;;;;;;;;;;4931474;29;20197;-87
2023/11/07 11:41:56;;;;;;;1.37;0.50;;;;;;;;;;4910172;29;20216;-87
2023/11/07 11:45:25;;;;;;;1.27;0.67;;;;;;;;;;4931494;29;20181;-87
2023/11/07 11:48:49;;;;;;;4.10;0.60;;;;;;;;;;4920489;29;20185;-87
2023/11/07 11:51:54;;;;;;;1.33;0.70;;;;;;;;;;4920832;29;20177;-87
2023/11/07 11:55:04;;;;;;;1.80;0.50;;;;;;;;;;4921272;29;20189;-87
2023/11/07 11:58:19;;;;;;;1.77;0.60;;;;;;;;;;4920277;29;20532;-87
2023/11/07 12:01:23;;;;;;;1.03;0.40;;;;;;;;;;4920924;29;20556;-88
2023/11/07 12:04:35;;;;;;;0.47;0.40;;;;;;;;;;4920883;29;20535;-88
2023/11/07 12:07:47;;;;;;;1.20;0.50;;;;;;;;;;4930731;29;20193;-88
2023/11/07 12:10:55;;;;;;;1.30;0.50;;;;;;;;;;4909465;29;20185;-88
2023/11/07 12:14:02;;;;;;;2.03;0.60;;;;;;;;;;4909877;29;20646;-89
2023/11/07 12:17:06;;;;;;;1.10;0.70;;;;;;;;;;4921049;29;20578;-85
2023/11/07 12:20:16;;;;;;;1.23;0.67;;;;;;;;;;4920690;29;20531;-85
2023/11/07 12:23:21;;;;;;;1.00;0.60;;;;;;;;;;4931792;29;20543;-85
2023/11/07 12:26:42;;;;;;;1.27;0.40;;;;;;;;;;4920559;29;20229;-85
2023/11/07 12:29:46;;;;;;;0.67;0.60;;;;;;;;;;4920006;29;20193;-85
2023/11/07 12:32:59;;;;;;;2.50;0.73;;;;;;;;;;4909512;29;20181;-88
2023/11/07 12:36:18;;;;;;;1.60;0.60;;;;;;;;;;4919902;29;20228;-89
2023/11/07 12:39:48;;;;;;;6.30;0.70;;;;;;;;;;4908914;29;20216;-89
2023/11/07 12:42:56;;;;;;;1.23;0.50;;;;;;;;;;4920094;29;20186;-89
2023/11/07 12:46:01;;;;;;;2.40;0.70;;;;;;;;;;4909021;29;20229;-89
2023/11/07 12:49:05;;;;;;;0.90;0.70;;;;;;;;;;4919934;29;20540;-89
2023/11/07 12:52:10;;;;;;;4.37;2.30;;;;;;;;;;4931111;29;20181;-89
2023/11/07 12:55:21;;;;;;;0.97;0.70;;;;;;;;;;4908586;29;20193;-88
2023/11/07 12:58:27;;;;;;;1.00;0.50;;;;;;;;;;4908662;29;20189;-89
2023/11/07 13:01:31;;;;;;;1.50;0.67;;;;;;;;;;4930801;29;20213;-89
2023/11/07 13:09:12;;;;;;;0.77;0.60;;;;;;;;;;4880299;29;20222;-89
2023/11/07 13:12:22;;;;;;;1.40;0.70;;;;;;;;;;4880641;29;20191;-89
2023/11/07 13:15:29;;;;;;;0.80;0.63;;;;;;;;;;4881598;29;20652;-89
2023/11/07 13:18:37;;;;;;;0.90;0.70;;;;;;;;;;4870780;29;20186;-90
2023/11/07 13:21:44;;;;;;;0.80;0.60;;;;;;;;;;4859735;29;20222;-89
2023/11/07 13:24:49;;;;;;;2.27;0.47;;;;;;;;;;4861100;29;20190;-89
2023/11/07 13:27:56;;;;;;;2.50;0.50;;;;;;;;;;4882242;29;20186;-89
2023/11/07 13:31:00;;;;;;;1.63;0.60;;;;;;;;;;4882020;29;20191;-89
2023/11/07 13:34:18;;;;;;;0.83;0.40;;;;;;;;;;4871319;29;20190;-90
2023/11/07 13:37:26;;;;;;;0.70;0.50;;;;;;;;;;4850464;29;20230;-89
2023/11/07 13:40:39;;;;;;;0.50;0.50;;;;;;;;;;4860903;29;20226;-89
2023/11/07 13:43:44;;;;;;;2.23;0.70;;;;;;;;;;4859426;29;20186;-87
2023/11/07 13:47:09;;;;;;;1.60;0.50;;;;;;;;;;4880089;29;20560;-88
2023/11/07 13:50:15;;;;;;;1.27;0.60;;;;;;;;;;4858817;29;20190;-89
2023/11/07 13:53:19;;;;;;;0.83;0.40;;;;;;;;;;4880846;29;20190;-85
2023/11/07 13:56:25;;;;;;;1.53;0.50;;;;;;;;;;4881312;29;20225;-89
2023/11/07 13:59:30;;;;;;;0.77;0.50;;;;;;;;;;4880308;29;20186;-89
2023/11/07 14:02:35;;;;;;;0.87;0.50;;;;;;;;;;4869085;29;20217;-89
2023/11/07 14:05:39;;;;;;;2.57;0.40;;;;;;;;;;4869542;29;20703;-90
2023/11/07 14:08:43;;;;;;;0.53;0.50;;;;;;;;;;4869471;29;20182;-89
2023/11/07 14:11:47;;;;;;;0.93;0.40;;;;;;;;;;4879796;29;20178;-89
2023/11/07 14:14:52;;;;;;;0.87;0.60;;;;;;;;;;4879585;29;20536;-89
2023/11/07 14:17:56;;;;;;;1.00;0.50;;;;;;;;;;4869555;29;20181;-89
2023/11/07 14:21:02;;;;;;;0.70;0.40;;;;;;;;;;4880243;29;20214;-89
2023/11/07 14:24:07;;;;;;;0.97;0.43;;;;;;;;;;4862404;29;20537;-89
2023/11/07 14:27:11;;;;;;;0.50;0.50;;;;;;;;;;4872909;29;20229;-89
2023/11/07 14:30:15;;;;;;;4.07;0.50;;;;;;;;;;4873751;29;20541;-89
2023/11/07 14:33:20;;;;;;;0.60;0.40;;;;;;;;;;4873604;29;20186;-89
2023/11/07 14:36:24;;;;;;;1.87;0.53;;;;;;;;;;4884026;29;20222;-90
2023/11/07 14:39:28;;;;;;;0.70;0.60;;;;;;;;;;4873830;29;20190;-89
2023/11/07 14:42:33;;;;;;;0.60;0.40;;;;;;;;;;4873268;29;20217;-89
2023/11/07 14:45:40;;;;;;;4.70;0.50;;;;;;;;;;4863330;29;20221;-88
2023/11/07 14:48:45;;;;;;;1.17;0.43;;;;;;;;;;4862981;29;20195;-88
2023/11/07 14:51:50;;;;;;;0.50;0.40;;;;;;;;;;4873242;29;20183;-89
2023/11/07 14:54:54;;;;;;;0.50;0.40;;;;;;;;;;4862379;29;20537;-89
2023/11/07 14:58:01;;;;;;;0.80;0.60;;;;;;;;;;4862954;29;20191;-89
2023/11/07 15:01:06;;;;;;;0.73;0.50;;;;;;;;;;4883571;29;20214;-88
2023/11/07 15:04:10;;;;;;;3.13;0.43;;;;;;;;;;4873380;29;20190;-87
2023/11/07 15:07:14;;;;;;;1.47;0.60;;;;;;;;;;4872266;29;20229;-89
2023/11/07 15:10:29;;;;;;;2.23;0.40;;;;;;;;;;4861779;29;20190;-88
2023/11/07 15:13:33;;;;;;;0.47;0.30;;;;;;;;;;4872043;29;20532;-87
2023/11/07 15:16:41;;;;;;;0.67;0.53;;;;;;;;;;4883126;29;20565;-87
2023/11/07 15:19:47;;;;;;;1.07;0.50;;;;;;;;;;4872087;29;20194;-87
2023/11/07 15:22:51;;;;;;;1.70;0.50;;;;;;;;;;4861494;29;20508;-88
2023/11/07 15:25:56;;;;;;;1.17;0.60;;;;;;;;;;4872279;29;20225;-88
2023/11/07 15:29:00;;;;;;;0.40;0.40;;;;;;;;;;4871894;29;20186;-88
2023/11/07 15:32:05;;;;;;;1.20;0.50;;;;;;;;;;4871719;29;20532;-88
2023/11/07 15:35:10;;;;;;;3.00;0.50;;;;;;;;;;4860581;29;20191;-88
2023/11/07 15:38:14;;;;;;;0.70;0.57;;;;;;;;;;4872238;29;20194;-88
2023/11/07 15:41:18;;;;;;;1.00;0.50;;;;;;;;;;4861078;29;20218;-88
2023/11/07 15:44:22;;;;;;;1.63;0.60;;;;;;;;;;4871967;29;20190;-90
2023/11/07 15:47:27;;;;;;;2.60;0.60;;;;;;;;;;4871820;29;20711;-87
2023/11/07 15:50:31;;;;;;;0.60;0.50;;;;;;;;;;4860715;29;20644;-88
2023/11/07 15:53:35;;;;;;;1.87;0.80;;;;;;;;;;4871094;29;20186;-88
2023/11/07 15:56:46;;;;;;;1.67;0.70;;;;;;;;;;4860598;29;20221;-88
2023/11/07 15:59:50;;;;;;;5.67;2.80;;;;;;;;;;4871634;29;20186;-88
2023/11/07 16:02:54;;;;;;;3.87;2.50;;;;;;;;;;4870915;29;20222;-88
2023/11/07 16:05:59;;;;;;;1.97;1.10;;;;;;;;;;4860322;29;20226;-88
2023/11/07 16:09:03;;;;;;;1.87;0.93;;;;;;;;;;4870782;29;20186;-88
2023/11/07 16:12:09;;;;;;;1.43;0.77;;;;;;;;;;4870959;29;20187;-88
2023/11/07 16:15:14;;;;;;;4.10;3.13;;;;;;;;;;4870591;29;20537;-88
2023/11/07 16:18:19;;;;;;;2.00;1.50;;;;;;;;;;4870789;29;20187;-88
2023/11/07 16:21:24;;;;;;;1.23;1.00;;;;;;;;;;4870848;29;20193;-88
2023/11/07 16:24:29;;;;;;;2.63;0.97;;;;;;;;;;4859939;29;20194;-87
2023/11/07 16:27:33;;;;;;;1.50;1.30;;;;;;;;;;4870712;29;20723;-88
2023/11/07 16:30:38;;;;;;;1.60;1.43;;;;;;;;;;4859634;29;20187;-88
2023/11/07 16:33:42;;;;;;;2.20;1.50;;;;;;;;;;4870527;29;20182;-88
2023/11/07 16:36:47;;;;;;;2.07;1.30;;;;;;;;;;4870227;29;20225;-88
2023/11/07 16:39:51;;;;;;;3.00;1.40;;;;;;;;;;4870277;29;20195;-87
2023/11/07 16:42:56;;;;;;;1.00;0.90;;;;;;;;;;4870190;29;20222;-88
2023/11/07 16:46:00;;;;;;;3.17;0.80;;;;;;;;;;4870000;29;20226;-90
2023/11/07 16:49:03;;;;;;;0.97;0.70;;;;;;;;;;4860475;29;20187;-88
2023/11/07 16:52:11;;;;;;;0.60;0.50;;;;;;;;;;4871025;29;20178;-88
2023/11/07 16:55:16;;;;;;;0.60;0.60;;;;;;;;;;4876618;29;20194;-88
2023/11/07 16:58:20;;;;;;;0.87;0.60;;;;;;;;;;4877639;29;20194;-88
2023/11/07 17:01:24;;;;;;;1.63;0.67;;;;;;;;;;4876346;29;20195;-88
2023/11/07 17:04:29;;;;;;;1.47;0.70;;;;;;;;;;4866386;29;20189;-88
2023/11/07 17:07:36;;;;;;;1.80;0.70;;;;;;;;;;4876375;29;20230;-88
2023/11/07 17:10:40;;;;;;;0.83;0.70;;;;;;;;;;4865483;29;20194;-88
2023/11/07 17:13:45;;;;;;;0.63;0.60;;;;;;;;;;4876633;29;20664;-89
2023/11/07 17:16:50;;;;;;;0.87;0.70;;;;;;;;;;4876195;29;20221;-88
2023/11/07 17:19:55;;;;;;;1.97;0.80;;;;;;;;;;4875947;29;20668;-88
2023/11/07 17:22:59;;;;;;;0.97;0.80;;;;;;;;;;4875141;29;20218;-88
2023/11/07 17:26:05;;;;;;;4.10;3.30;;;;;;;;;;4877113;29;20225;-88
2023/11/07 17:29:10;;;;;;;4.00;1.60;;;;;;;;;;4857701;29;20194;-88
2023/11/07 17:32:14;;;;;;;1.70;1.30;;;;;;;;;;4877928;29;20182;-88
2023/11/07 17:35:18;;;;;;;5.73;1.83;;;;;;;;;;4878016;29;20190;-88
2023/11/07 17:38:23;;;;;;;2.37;1.80;;;;;;;;;;4879285;29;20186;-88
2023/11/07 17:41:27;;;;;;;3.00;1.60;;;;;;;;;;4879336;29;20190;-88
2023/11/07 17:44:31;;;;;;;1.20;1.10;;;;;;;;;;4880206;29;20186;-89
2023/11/07 17:47:36;;;;;;;2.00;1.60;;;;;;;;;;4877637;29;20226;-88
2023/11/07 17:50:41;;;;;;;2.07;1.33;;;;;;;;;;4867219;29;20186;-88
2023/11/07 17:53:50;;;;;;;1.80;1.13;;;;;;;;;;4888523;29;20190;-88
2023/11/07 17:56:54;;;;;;;2.30;1.90;;;;;;;;;;4876733;29;20226;-88
2023/11/07 17:59:58;;;;;;;9.03;6.10;;;;;;;;;;4877208;29;20194;-89
2023/11/07 18:03:03;;;;;;;4.17;3.00;;;;;;;;;;4877269;29;20217;-88
2023/11/07 18:06:11;;;;;;;1.63;1.23;;;;;;;;;;4877384;29;20230;-89
2023/11/07 18:09:15;;;;;;;1.67;1.20;;;;;;;;;;4867054;29;20191;-83
2023/11/07 18:12:19;;;;;;;1.50;1.10;;;;;;;;;;4890856;29;20238;-83
2023/11/07 18:30:24;;;;;;;1.70;1.17;;;;;;;;;;4794688;30;20564;-89
2023/11/07 18:33:28;;;;;;;2.70;1.30;;;;;;;;;;4823401;29;20207;-89
2023/11/07 18:36:33;;;;;;;2.43;1.30;;;;;;;;;;4875649;29;20226;-90
2023/11/07 18:39:39;;;;;;;1.63;1.20;;;;;;;;;;4854890;29;20194;-89
2023/11/07 18:42:43;;;;;;;1.30;1.20;;;;;;;;;;4875514;29;20695;-89
2023/11/07 18:45:47;;;;;;;1.23;1.10;;;;;;;;;;4875906;29;20222;-89
2023/11/07 18:48:51;;;;;;;1.30;1.20;;;;;;;;;;4886447;29;20194;-89
2023/11/07 18:51:55;;;;;;;1.73;1.20;;;;;;;;;;4864969;29;20190;-89
2023/11/07 18:55:01;;;;;;;1.50;1.20;;;;;;;;;;4885951;29;20182;-89
2023/11/07 18:58:05;;;;;;;1.13;0.90;;;;;;;;;;4875036;29;20210;-89
2023/11/07 19:01:09;;;;;;;0.97;0.80;;;;;;;;;;4873816;29;20190;-89
2023/11/07 19:04:13;;;;;;;3.20;0.90;;;;;;;;;;4883725;29;20226;-89
2023/11/07 19:07:17;;;;;;;1.40;0.80;;;;;;;;;;4874778;29;20549;-89
2023/11/07 19:10:22;;;;;;;1.13;1.00;;;;;;;;;;4894505;29;20190;-88
2023/11/07 19:13:27;;;;;;;3.77;0.83;;;;;;;;;;4876879;29;20190;-89
2023/11/07 19:16:32;;;;;;;3.33;2.17;;;;;;;;;;4876063;29;20217;-89
2023/11/07 19:19:36;;;;;;;2.90;1.50;;;;;;;;;;4876835;29;20660;-90
2023/11/07 19:22:40;;;;;;;1.30;1.00;;;;;;;;;;4866212;29;20214;-89
2023/11/07 19:25:45;;;;;;;1.60;1.00;;;;;;;;;;4866537;29;20568;-88
2023/11/07 19:28:50;;;;;;;1.30;0.90;;;;;;;;;;4877344;29;20194;-89
2023/11/07 19:31:55;;;;;;;0.53;0.53;;;;;;;;;;4877002;29;20187;-89
2023/11/07 19:34:59;;;;;;;1.00;0.60;;;;;;;;;;4865847;29;20186;-88
2023/11/07 19:38:05;;;;;;;1.10;0.90;;;;;;;;;;4876629;29;20186;-89
2023/11/07 19:41:12;;;;;;;0.80;0.70;;;;;;;;;;4865861;29;20183;-89
2023/11/07 19:44:16;;;;;;;1.73;0.73;;;;;;;;;;4886857;29;20560;-89
2023/11/07 19:47:21;;;;;;;0.53;0.53;;;;;;;;;;4865605;29;20226;-89
2023/11/07 19:50:25;;;;;;;1.57;0.80;;;;;;;;;;4865984;29;20652;-89
2023/11/07 19:53:31;;;;;;;0.93;0.80;;;;;;;;;;4877147;29;20186;-90
2023/11/07 19:56:37;;;;;;;1.77;0.63;;;;;;;;;;4875666;29;20230;-89
2023/11/07 19:59:42;;;;;;;0.93;0.83;;;;;;;;;;4875922;29;20529;-89
2023/11/07 20:02:46;;;;;;;1.10;1.00;;;;;;;;;;4876863;29;20222;-89
2023/11/07 20:05:53;;;;;;;1.00;0.90;;;;;;;;;;4865445;29;20225;-89
2023/11/07 20:08:58;;;;;;;0.83;0.70;;;;;;;;;;4876044;29;20187;-89
2023/11/07 20:12:03;;;;;;;2.17;0.80;;;;;;;;;;4865766;29;20190;-89
2023/11/07 20:15:11;;;;;;;1.10;0.80;;;;;;;;;;4865774;29;20186;-89
2023/11/07 20:18:16;;;;;;;1.33;0.80;;;;;;;;;;4875696;29;20186;-89
2023/11/07 20:21:20;;;;;;;0.80;0.80;;;;;;;;;;4875058;29;20194;-89
2023/11/07 20:24:24;;;;;;;1.93;1.00;;;;;;;;;;4874581;29;20571;-89
2023/11/07 20:27:28;;;;;;;0.80;0.70;;;;;;;;;;4874822;29;20234;-89
2023/11/07 20:30:34;;;;;;;0.80;0.70;;;;;;;;;;4875463;29;20190;-89
2023/11/07 20:33:38;;;;;;;2.00;0.80;;;;;;;;;;4863904;29;20190;-89
2023/11/07 20:36:42;;;;;;;1.93;0.90;;;;;;;;;;4874264;29;20230;-89
2023/11/07 20:39:47;;;;;;;0.83;0.77;;;;;;;;;;4885836;29;20186;-89
2023/11/07 20:42:51;;;;;;;1.43;0.80;;;;;;;;;;4873988;29;20222;-89
2023/11/07 20:45:57;;;;;;;2.07;1.07;;;;;;;;;;4873538;29;20230;-89
2023/11/07 20:49:02;;;;;;;0.70;0.70;;;;;;;;;;4873927;29;20190;-89
2023/11/07 20:52:07;;;;;;;1.13;0.80;;;;;;;;;;4873397;29;20632;-89
2023/11/07 20:55:11;;;;;;;1.43;1.00;;;;;;;;;;4862434;29;20183;-89
2023/11/07 20:58:15;;;;;;;0.83;0.70;;;;;;;;;;4872493;29;20632;-90
2023/11/07 21:01:22;;;;;;;1.57;1.00;;;;;;;;;;4884847;29;20285;-90
2023/11/07 21:04:27;;;;;;;0.80;0.77;;;;;;;;;;4873357;29;20214;-89
2023/11/07 21:07:33;;;;;;;4.20;1.00;;;;;;;;;;4872806;29;20234;-90
2023/11/07 21:10:37;;;;;;;2.70;0.90;;;;;;;;;;4882841;29;20190;-90
2023/11/07 21:13:41;;;;;;;1.60;0.90;;;;;;;;;;4861418;29;20182;-90
2023/11/07 21:16:45;;;;;;;2.00;0.93;;;;;;;;;;4884309;29;20229;-90
2023/11/07 21:19:50;;;;;;;2.10;1.00;;;;;;;;;;4883655;29;20199;-90
2023/11/07 21:22:55;;;;;;;0.93;0.83;;;;;;;;;;4873495;29;20222;-90
2023/11/07 21:25:59;;;;;;;2.37;1.77;;;;;;;;;;4883858;29;20225;-90
2023/11/07 21:29:03;;;;;;;2.13;1.10;;;;;;;;;;4862249;29;20194;-90
2023/11/07 21:32:08;;;;;;;1.30;1.20;;;;;;;;;;4881701;29;20191;-90
2023/11/07 21:35:18;;;;;;;1.97;1.20;;;;;;;;;;4861828;29;20644;-90
2023/11/07 21:38:22;;;;;;;1.30;1.10;;;;;;;;;;4882898;29;20182;-90
2023/11/07 21:41:26;;;;;;;1.90;1.00;;;;;;;;;;4871973;29;20194;-90
2023/11/07 21:44:30;;;;;;;1.80;1.17;;;;;;;;;;4883218;29;20214;-90
2023/11/07 21:47:34;;;;;;;2.20;1.30;;;;;;;;;;4873252;29;20572;-90
2023/11/07 21:50:38;;;;;;;2.50;1.50;;;;;;;;;;4861827;29;20190;-91
2023/11/07 21:53:43;;;;;;;3.40;1.30;;;;;;;;;;4872538;29;20265;-90
2023/11/07 21:56:48;;;;;;;1.70;1.30;;;;;;;;;;4872275;29;20226;-90
2023/11/07 21:59:52;;;;;;;1.70;1.30;;;;;;;;;;4881534;29;20530;-90
2023/11/07 22:02:56;;;;;;;1.23;1.13;;;;;;;;;;4881964;29;20190;-90
2023/11/07 22:06:00;;;;;;;2.73;1.37;;;;;;;;;;4870867;29;20237;-90
2023/11/07 22:09:05;;;;;;;1.30;1.20;;;;;;;;;;4871315;29;20194;-90
2023/11/07 22:12:09;;;;;;;2.20;0.93;;;;;;;;;;4881612;29;20190;-90
2023/11/07 22:15:13;;;;;;;1.57;1.37;;;;;;;;;;4870802;29;20182;-90
2023/11/07 22:18:17;;;;;;;1.47;1.00;;;;;;;;;;4860382;29;20190;-90
2023/11/07 22:21:21;;;;;;;1.43;1.20;;;;;;;;;;4881917;29;20194;-90
2023/11/07 22:24:25;;;;;;;1.77;1.27;;;;;;;;;;4881367;29;20225;-90
2023/11/07 22:27:29;;;;;;;3.23;1.43;;;;;;;;;;4860055;29;20230;-90
2023/11/07 22:30:34;;;;;;;2.87;1.40;;;;;;;;;;4870772;29;20186;-90
2023/11/07 22:33:38;;;;;;;1.83;1.33;;;;;;;;;;4870830;29;20533;-91
2023/11/07 22:36:41;;;;;;;2.30;1.30;;;;;;;;;;4870912;29;20225;-87
2023/11/07 22:39:46;;;;;;;2.60;1.20;;;;;;;;;;4870826;29;20190;-88
2023/11/07 22:42:50;;;;;;;1.90;1.40;;;;;;;;;;4871854;29;20194;-87
2023/11/07 22:45:54;;;;;;;1.30;1.13;;;;;;;;;;4874571;29;20218;-87
2023/11/07 22:48:58;;;;;;;5.23;1.40;;;;;;;;;;4874551;29;20190;-88
2023/11/07 22:52:02;;;;;;;1.27;1.13;;;;;;;;;;4874562;29;20190;-87
2023/11/07 22:55:10;;;;;;;1.70;1.10;;;;;;;;;;4875342;29;20182;-87
2023/11/07 22:58:15;;;;;;;1.87;1.10;;;;;;;;;;4855307;29;20190;-87
2023/11/07 23:01:19;;;;;;;1.60;1.00;;;;;;;;;;4875319;29;20190;-87
2023/11/07 23:04:24;;;;;;;2.97;0.87;;;;;;;;;;4875217;29;20214;-87
2023/11/07 23:07:28;;;;;;;2.90;1.30;;;;;;;;;;4864072;29;20239;-88
2023/11/07 23:10:32;;;;;;;2.27;1.00;;;;;;;;;;4864135;29;20533;-87
2023/11/07 23:13:36;;;;;;;1.10;1.00;;;;;;;;;;4874512;29;20190;-87
2023/11/07 23:16:42;;;;;;;1.87;1.10;;;;;;;;;;4874686;29;20226;-87
2023/11/07 23:19:46;;;;;;;1.43;1.10;;;;;;;;;;4875035;29;20194;-87
2023/11/07 23:22:50;;;;;;;3.20;1.10;;;;;;;;;;4874881;29;20636;-87
2023/11/07 23:25:54;;;;;;;2.30;1.00;;;;;;;;;;4874173;29;20218;-88
2023/11/07 23:28:59;;;;;;;1.57;1.07;;;;;;;;;;4863445;29;20529;-87
2023/11/07 23:32:04;;;;;;;1.60;1.10;;;;;;;;;;4874002;29;20190;-87
2023/11/07 23:35:09;;;;;;;1.60;1.10;;;;;;;;;;4874780;29;20190;-88
2023/11/07 23:38:13;;;;;;;1.00;0.80;;;;;;;;;;4863808;29;20194;-88
2023/11/07 23:41:18;;;;;;;2.47;0.87;;;;;;;;;;4873842;29;20194;-87
2023/11/07 23:44:22;;;;;;;4.43;1.07;;;;;;;;;;4853181;29;20218;-87
2023/11/07 23:47:27;;;;;;;2.33;1.10;;;;;;;;;;4863334;29;20226;-88
2023/11/07 23:50:31;;;;;;;1.93;0.80;;;;;;;;;;4874126;29;20194;-87
2023/11/07 23:53:36;;;;;;;1.37;0.80;;;;;;;;;;4863636;29;20540;-88
2023/11/07 23:56:40;;;;;;;3.20;0.90;;;;;;;;;;4873587;29;20233;-88
2023/11/07 23:59:45;;;;;;;3.13;1.03;;;;;;;;;;4853245;29;20190;-88
